Time;durP1;ratioP1;P1;durP2;ratioP2;P2;SDS_P1;SDS_P2;PMS_P1;PMS_P2;Temp;Humidity;BMP_temperature;BMP_pressure;BME280_temperature;BME280_humidity;BME280_pressure;Samples;Min_cycle;Max_cycle;Signal;HPM_P1;HPM_P2
2022/04/22 00:01:13;;;;;;;12.60;7.40;;;10.40;99.90;;;;;;4789709;30;20091;-66
2022/04/22 00:03:39;;;;;;;10.93;7.60;;;10.30;99.90;;;;;;4774460;30;20063;-67
2022/04/22 00:06:05;;;;;;;11.00;7.47;;;10.30;99.90;;;;;;4774291;30;20059;-67
2022/04/22 00:08:30;;;;;;;8.82;7.28;;;10.20;99.90;;;;;;4789520;30;20496;-67
2022/04/22 00:13:40;;;;;;;10.98;6.70;;;10.10;99.90;;;;;;4788580;30;20091;-68
2022/04/22 00:16:06;;;;;;;12.55;7.70;;;10.10;99.90;;;;;;4773899;30;20087;-69
2022/04/22 00:18:33;;;;;;;12.20;7.25;;;10.10;99.90;;;;;;4776581;30;20064;-66
2022/04/22 00:20:59;;;;;;;9.60;7.60;;;10.00;99.90;;;;;;4790342;30;20323;-70
2022/04/22 00:23:26;;;;;;;10.80;7.57;;;10.00;99.90;;;;;;4774699;30;20125;-67
2022/04/22 00:25:52;;;;;;;15.45;8.82;;;10.00;99.90;;;;;;4789312;29;20138;-69
2022/04/22 00:28:18;;;;;;;9.63;7.25;;;9.90;99.90;;;;;;4784212;29;20066;-68
2022/04/22 00:30:44;;;;;;;10.52;7.47;;;9.90;99.90;;;;;;4772232;30;20059;-68
2022/04/22 00:33:10;;;;;;;12.70;8.05;;;9.80;99.90;;;;;;4790037;30;20482;-68
2022/04/22 00:35:35;;;;;;;13.20;8.30;;;9.80;99.90;;;;;;4789110;30;20062;-70
2022/04/22 00:38:01;;;;;;;13.23;8.65;;;9.80;99.90;;;;;;4774750;29;20055;-68
2022/04/22 00:40:27;;;;;;;11.05;8.02;;;9.80;99.90;;;;;;4776940;30;20497;-67
2022/04/22 00:42:53;;;;;;;13.60;8.07;;;9.70;99.90;;;;;;4789342;29;20067;-67
2022/04/22 00:45:20;;;;;;;12.70;7.93;;;9.70;99.90;;;;;;4789267;30;20062;-68
2022/04/22 00:47:46;;;;;;;13.13;7.82;;;9.70;99.90;;;;;;4785425;29;20229;-68
2022/04/22 00:50:12;;;;;;;14.77;8.30;;;9.70;99.90;;;;;;4788264;30;20056;-66
2022/04/22 00:52:38;;;;;;;12.48;7.75;;;9.70;99.90;;;;;;4773313;30;20382;-69
2022/04/22 00:55:08;;;;;;;13.07;8.20;;;9.60;99.90;;;;;;4789442;30;20386;-67
2022/04/22 00:57:33;;;;;;;13.45;8.52;;;9.60;99.90;;;;;;4788566;30;20066;-68
2022/04/22 01:00:00;;;;;;;18.23;8.50;;;9.60;99.90;;;;;;4786280;30;20055;-69
2022/04/22 01:02:25;;;;;;;15.45;8.93;;;9.60;99.90;;;;;;4772420;30;20501;-69
2022/04/22 01:10:21;;;;;;;13.95;8.52;;;9.50;99.90;;;;;;4789113;30;20063;-68
2022/04/22 01:12:46;;;;;;;13.32;9.00;;;9.50;99.90;;;;;;4772516;30;20051;-67
2022/04/22 01:15:12;;;;;;;14.98;9.15;;;9.50;99.90;;;;;;4788198;30;20202;-67
2022/04/22 01:17:38;;;;;;;13.73;9.63;;;9.40;99.90;;;;;;4773126;30;20062;-69
2022/04/22 01:20:05;;;;;;;14.13;9.95;;;9.30;99.90;;;;;;4775436;30;20051;-67
2022/04/22 01:22:30;;;;;;;15.18;9.88;;;9.30;99.90;;;;;;4788915;30;20063;-69
2022/04/22 01:25:02;;;;;;;15.88;10.50;;;9.30;99.90;;;;;;4773287;30;20055;-67
2022/04/22 01:27:31;;;;;;;18.30;10.18;;;9.30;99.90;;;;;;4787791;30;20069;-68
2022/04/22 01:30:06;;;;;;;17.05;10.60;;;9.20;99.90;;;;;;4785886;29;20051;-70
2022/04/22 01:32:31;;;;;;;16.45;10.50;;;9.10;99.90;;;;;;4788857;29;20116;-68
2022/04/22 01:34:57;;;;;;;21.85;10.93;;;9.10;99.90;;;;;;4789028;29;20059;-68
2022/04/22 01:37:23;;;;;;;18.05;10.85;;;9.10;99.90;;;;;;4787781;29;20067;-67
2022/04/22 01:39:49;;;;;;;17.30;10.32;;;9.10;99.90;;;;;;4787421;30;20094;-67
2022/04/22 01:42:15;;;;;;;19.05;10.77;;;9.00;99.90;;;;;;4788189;29;20047;-67
2022/04/22 01:44:40;;;;;;;17.27;10.23;;;9.00;99.90;;;;;;4787066;29;20055;-67
2022/04/22 01:47:06;;;;;;;17.75;11.63;;;9.00;99.90;;;;;;4785195;30;20058;-70
2022/04/22 01:49:32;;;;;;;16.73;10.73;;;9.00;99.90;;;;;;4787537;30;20413;-67
2022/04/22 01:51:58;;;;;;;21.65;11.02;;;8.90;99.90;;;;;;4788797;30;20055;-69
2022/04/22 01:54:24;;;;;;;17.17;9.70;;;8.90;99.90;;;;;;4787262;29;20055;-68
2022/04/22 01:56:50;;;;;;;16.17;10.35;;;8.80;99.90;;;;;;4772910;30;20106;-69
2022/04/22 01:59:15;;;;;;;16.50;10.63;;;8.80;99.90;;;;;;4787183;30;20051;-69
2022/04/22 02:01:41;;;;;;;20.73;10.57;;;8.80;99.90;;;;;;4787520;30;20063;-68
2022/04/22 02:04:06;;;;;;;15.25;9.82;;;8.80;99.90;;;;;;4786320;29;20055;-67
2022/04/22 02:06:32;;;;;;;18.70;10.32;;;8.80;99.90;;;;;;4787311;30;20063;-68
2022/04/22 02:08:58;;;;;;;15.50;10.10;;;8.70;99.90;;;;;;4787345;30;20055;-68
2022/04/22 02:11:23;;;;;;;18.63;9.88;;;8.70;99.90;;;;;;4786710;30;20063;-68
2022/04/22 02:13:49;;;;;;;16.10;10.10;;;8.70;99.90;;;;;;4772187;30;20059;-67
2022/04/22 02:16:15;;;;;;;17.63;11.15;;;8.60;99.90;;;;;;4786606;29;20158;-65
2022/04/22 02:18:42;;;;;;;18.73;10.27;;;8.60;99.90;;;;;;4787088;29;20063;-67
2022/04/22 02:21:10;;;;;;;16.23;10.25;;;8.60;99.90;;;;;;4787876;29;20476;-68
2022/04/22 02:23:36;;;;;;;18.33;10.93;;;8.50;99.90;;;;;;4787677;30;20055;-67
2022/04/22 02:26:03;;;;;;;16.27;10.30;;;8.50;99.90;;;;;;4788093;30;20066;-67
2022/04/22 02:28:33;;;;;;;13.57;9.35;;;8.50;99.90;;;;;;4787097;30;20497;-68
2022/04/22 02:31:12;;;;;;;15.93;10.38;;;8.40;99.90;;;;;;4770849;30;20405;-67
2022/04/22 02:33:39;;;;;;;14.05;10.25;;;8.40;99.90;;;;;;4787406;30;20069;-67
2022/04/22 02:36:08;;;;;;;16.88;10.52;;;8.40;99.90;;;;;;4787287;30;20056;-68
2022/04/22 02:38:34;;;;;;;14.63;9.65;;;8.40;99.90;;;;;;4787928;30;20063;-67
2022/04/22 02:46:28;;;;;;;17.58;10.70;;;8.30;99.90;;;;;;4786716;30;20112;-67
2022/04/22 02:48:58;;;;;;;17.50;10.88;;;8.20;99.90;;;;;;4786811;30;20063;-68
2022/04/22 02:51:24;;;;;;;16.67;10.57;;;8.20;99.90;;;;;;4786254;29;20070;-68
2022/04/22 02:53:50;;;;;;;18.73;10.48;;;8.20;99.90;;;;;;4785657;29;20207;-66
2022/04/22 02:56:18;;;;;;;15.15;9.65;;;8.10;99.90;;;;;;4771603;30;20486;-67
2022/04/22 02:58:44;;;;;;;16.23;9.95;;;8.10;99.90;;;;;;4785270;29;20130;-66
2022/04/22 03:01:10;;;;;;;15.95;9.80;;;8.10;99.90;;;;;;4786698;29;20062;-67
2022/04/22 03:03:36;;;;;;;16.05;9.75;;;8.10;99.90;;;;;;4787556;30;20410;-66
2022/04/22 03:06:02;;;;;;;15.70;9.93;;;8.10;99.90;;;;;;4787430;30;20055;-67
2022/04/22 03:08:28;;;;;;;15.40;9.85;;;8.10;99.90;;;;;;4772022;30;20205;-69
2022/04/22 03:10:53;;;;;;;14.18;9.50;;;8.00;99.90;;;;;;4771116;30;20573;-67
2022/04/22 03:13:19;;;;;;;14.00;9.43;;;8.00;99.90;;;;;;4770124;30;20062;-66
2022/04/22 03:15:45;;;;;;;15.30;9.65;;;8.00;99.90;;;;;;4769883;30;20153;-66
2022/04/22 03:18:11;;;;;;;13.02;8.45;;;8.00;99.90;;;;;;4787642;30;20051;-66
2022/04/22 03:20:37;;;;;;;17.98;10.18;;;8.00;99.90;;;;;;4787443;30;20047;-69
2022/04/22 03:23:03;;;;;;;13.23;8.85;;;7.90;99.90;;;;;;4788041;30;20174;-67
2022/04/22 03:25:28;;;;;;;14.45;8.25;;;7.90;99.90;;;;;;4786336;30;20061;-66
2022/04/22 03:27:54;;;;;;;13.57;8.50;;;7.90;99.90;;;;;;4786023;30;20051;-67
2022/04/22 03:30:20;;;;;;;11.88;8.15;;;7.90;99.90;;;;;;4787435;30;20051;-67
2022/04/22 03:32:45;;;;;;;16.17;9.10;;;7.80;99.90;;;;;;4786320;30;20058;-66
2022/04/22 03:35:11;;;;;;;12.48;8.05;;;7.80;99.90;;;;;;4787758;30;20089;-67
2022/04/22 03:37:36;;;;;;;13.60;7.72;;;7.80;99.90;;;;;;4787152;30;20077;-67
2022/04/22 03:40:03;;;;;;;13.00;7.80;;;7.80;99.90;;;;;;4786232;29;20465;-68
2022/04/22 03:42:29;;;;;;;11.95;7.70;;;7.70;99.90;;;;;;4771204;30;20055;-67
2022/04/22 03:44:58;;;;;;;12.65;7.95;;;7.70;99.90;;;;;;4786138;30;20130;-67
2022/04/22 03:47:23;;;;;;;11.93;7.50;;;7.70;99.90;;;;;;4785691;30;20496;-67
2022/04/22 03:49:49;;;;;;;11.82;7.50;;;7.70;99.90;;;;;;4787084;29;20051;-66
2022/04/22 03:52:15;;;;;;;10.15;7.20;;;7.60;99.90;;;;;;4786163;29;20082;-67
2022/04/22 03:54:41;;;;;;;11.18;7.05;;;7.60;99.90;;;;;;4770454;30;20064;-67
2022/04/22 03:59:50;;;;;;;10.73;6.85;;;7.60;99.90;;;;;;4788390;29;20059;-66
2022/04/22 04:02:16;;;;;;;9.30;6.90;;;7.50;99.90;;;;;;4789796;29;20489;-66
2022/04/22 04:04:42;;;;;;;8.48;6.57;;;7.50;99.90;;;;;;4773106;30;20091;-68
2022/04/22 04:07:07;;;;;;;11.02;7.28;;;7.50;99.90;;;;;;4789053;29;20137;-65
2022/04/22 04:17:45;;;;;;;10.05;6.38;;;7.50;99.90;;;;;;4788600;29;20063;-68
2022/04/22 04:23:28;;;;;;;9.20;6.03;;;7.40;99.90;;;;;;4787759;29;20051;-68
2022/04/22 04:25:47;;;;;;;8.18;5.63;;;7.40;99.90;;;;;;4772260;29;20094;-69
2022/04/22 04:28:15;;;;;;;8.60;6.10;;;7.40;99.90;;;;;;4789351;29;20336;-67
2022/04/22 04:30:42;;;;;;;8.98;6.43;;;7.40;99.90;;;;;;4784585;29;20078;-68
2022/04/22 04:33:08;;;;;;;9.27;6.47;;;7.40;99.90;;;;;;4772118;30;20051;-67
2022/04/22 04:35:35;;;;;;;10.25;6.50;;;7.40;99.90;;;;;;4788722;30;20062;-67
2022/04/22 04:38:01;;;;;;;9.75;6.15;;;7.40;99.90;;;;;;4787930;30;20374;-69
2022/04/22 04:40:27;;;;;;;8.68;6.57;;;7.40;99.90;;;;;;4772859;30;20085;-67
2022/04/22 04:42:53;;;;;;;8.90;5.82;;;7.40;99.90;;;;;;4789104;30;20055;-70
2022/04/22 04:45:19;;;;;;;8.23;5.78;;;7.40;99.90;;;;;;4790136;30;20055;-69
2022/04/22 04:47:45;;;;;;;8.70;5.68;;;7.30;99.90;;;;;;4789381;30;20059;-67
2022/04/22 04:50:12;;;;;;;9.85;5.93;;;7.30;99.90;;;;;;4773341;30;20561;-68
2022/04/22 04:52:38;;;;;;;10.57;5.40;;;7.30;99.90;;;;;;4789025;30;20066;-68
2022/04/22 04:55:09;;;;;;;7.85;5.82;;;7.40;99.90;;;;;;4788574;30;20047;-69
2022/04/22 04:57:35;;;;;;;11.00;6.35;;;7.40;99.90;;;;;;4788905;29;20084;-67
2022/04/22 05:00:03;;;;;;;8.45;5.65;;;7.40;99.90;;;;;;4771763;30;20063;-67
2022/04/22 05:02:28;;;;;;;8.15;5.43;;;7.40;99.90;;;;;;4788790;29;20413;-69
2022/04/22 05:04:54;;;;;;;6.65;5.53;;;7.40;99.90;;;;;;4788229;29;20161;-69
2022/04/22 05:07:20;;;;;;;8.18;5.63;;;7.40;99.90;;;;;;4772769;29;20066;-67
2022/04/22 05:09:46;;;;;;;11.23;5.68;;;7.40;99.90;;;;;;4770181;30;20091;-68
2022/04/22 05:12:11;;;;;;;8.82;5.55;;;7.40;99.90;;;;;;4768592;30;20149;-70
2022/04/22 05:14:37;;;;;;;10.35;6.38;;;7.40;99.90;;;;;;4769512;30;20060;-68
2022/04/22 05:17:03;;;;;;;8.10;5.40;;;7.50;99.90;;;;;;4769949;30;20064;-67
2022/04/22 05:19:28;;;;;;;8.25;6.50;;;7.50;99.90;;;;;;4771373;30;20066;-67
2022/04/22 05:21:55;;;;;;;9.05;5.78;;;7.50;99.90;;;;;;4771331;30;20162;-67
2022/04/22 05:24:21;;;;;;;7.63;5.15;;;7.60;99.90;;;;;;4769436;30;20101;-67
2022/04/22 05:26:47;;;;;;;6.75;5.75;;;7.60;99.90;;;;;;4769127;30;20066;-67
2022/04/22 05:34:42;;;;;;;7.05;5.32;;;8.00;99.90;;;;;;4770166;30;20506;-68
2022/04/22 05:37:08;;;;;;;7.55;6.20;;;8.10;99.90;;;;;;4769599;30;20064;-67
2022/04/22 05:39:33;;;;;;;8.05;5.20;;;8.20;99.90;;;;;;4768030;30;20043;-66
2022/04/22 05:42:01;;;;;;;8.90;5.63;;;8.20;99.90;;;;;;4768158;30;20413;-69
2022/04/22 05:44:29;;;;;;;8.90;6.78;;;8.20;99.90;;;;;;4783294;30;20143;-67
2022/04/22 05:46:55;;;;;;;8.15;5.35;;;8.20;99.90;;;;;;4768497;30;20490;-66
2022/04/22 05:49:21;;;;;;;9.52;5.97;;;8.40;99.90;;;;;;4784217;29;20072;-67
2022/04/22 05:51:47;;;;;;;8.90;5.43;;;9.00;99.90;;;;;;4770842;30;20055;-68
2022/04/22 05:54:38;;;;;;;6.60;5.15;;;9.60;99.90;;;;;;4771026;30;20052;-68
2022/04/22 05:57:06;;;;;;;7.75;5.30;;;10.20;99.90;;;;;;4767865;30;20168;-68
2022/04/22 05:59:32;;;;;;;7.72;4.80;;;10.90;99.90;;;;;;4777278;29;20056;-69
2022/04/22 06:01:57;;;;;;;7.18;4.97;;;10.80;99.90;;;;;;4778790;30;20134;-68
2022/04/22 06:04:26;;;;;;;7.85;5.30;;;10.80;99.90;;;;;;4762662;30;20132;-69
2022/04/22 06:06:52;;;;;;;7.25;5.05;;;10.20;99.90;;;;;;4758451;30;20506;-66
2022/04/22 06:12:05;;;;;;;9.10;5.32;;;9.40;99.90;;;;;;4786562;29;20135;-67
2022/04/22 06:14:30;;;;;;;7.85;5.60;;;9.20;99.90;;;;;;4749139;30;20133;-67
2022/04/22 06:16:56;;;;;;;5.82;4.88;;;9.00;99.90;;;;;;4776182;30;20071;-68
2022/04/22 06:19:21;;;;;;;6.13;4.63;;;8.90;99.90;;;;;;4777529;29;20066;-68
2022/04/22 06:21:47;;;;;;;7.05;4.63;;;8.90;99.90;;;;;;4787730;29;20047;-68
2022/04/22 06:24:12;;;;;;;8.55;5.32;;;8.90;99.90;;;;;;4785459;29;20082;-67
2022/04/22 06:26:38;;;;;;;9.57;5.47;;;8.90;99.90;;;;;;4787407;30;20130;-67
2022/04/22 06:29:04;;;;;;;8.32;5.78;;;9.00;99.90;;;;;;4772911;30;20507;-67
2022/04/22 06:31:30;;;;;;;5.28;4.55;;;8.90;99.90;;;;;;4786260;29;20112;-66
2022/04/22 06:33:56;;;;;;;7.13;5.05;;;8.90;99.90;;;;;;4785298;30;20055;-67
2022/04/22 06:36:28;;;;;;;6.15;4.65;;;8.90;99.90;;;;;;4787963;30;20059;-67
2022/04/22 06:38:58;;;;;;;8.05;4.80;;;8.90;99.90;;;;;;4785401;30;20063;-68
2022/04/22 06:46:54;;;;;;;6.10;4.55;;;9.20;99.90;;;;;;4781053;29;20113;-69
2022/04/22 06:49:20;;;;;;;8.43;5.28;;;9.20;99.90;;;;;;4786447;30;20458;-67
2022/04/22 06:51:45;;;;;;;7.68;4.70;;;9.30;99.90;;;;;;4787049;29;20060;-69
2022/04/22 06:54:11;;;;;;;8.43;4.88;;;9.40;99.90;;;;;;4786730;30;20059;-69
2022/04/22 06:56:40;;;;;;;5.93;4.70;;;9.50;99.90;;;;;;4786959;30;20066;-68
2022/04/22 06:59:06;;;;;;;8.25;5.00;;;9.60;99.90;;;;;;4771044;30;20461;-68
2022/04/22 07:01:31;;;;;;;6.00;4.82;;;9.60;99.90;;;;;;4784694;29;20067;-69
2022/04/22 07:03:58;;;;;;;6.32;4.80;;;9.60;99.90;;;;;;4787450;30;20565;-69
2022/04/22 07:06:24;;;;;;;6.97;4.53;;;9.70;99.90;;;;;;4785606;29;20514;-68
2022/04/22 07:08:51;;;;;;;6.95;4.35;;;9.90;99.90;;;;;;4771293;30;20051;-68
2022/04/22 07:11:26;;;;;;;6.05;4.72;;;9.90;99.90;;;;;;4769182;29;20067;-65
2022/04/22 07:13:57;;;;;;;5.47;4.90;;;10.00;99.90;;;;;;4771206;30;20086;-66
2022/04/22 07:16:23;;;;;;;8.05;4.30;;;10.10;99.90;;;;;;4786605;30;20459;-66
2022/04/22 07:18:49;;;;;;;6.10;4.60;;;10.10;99.90;;;;;;4770739;30;20405;-67
2022/04/22 07:21:15;;;;;;;7.00;4.53;;;10.20;99.90;;;;;;4787129;30;20121;-68
2022/04/22 07:23:41;;;;;;;6.32;4.05;;;10.40;99.90;;;;;;4771753;30;20067;-68
2022/04/22 07:26:11;;;;;;;5.80;4.45;;;10.40;99.90;;;;;;4787095;30;20527;-68
2022/04/22 07:28:38;;;;;;;8.40;4.65;;;10.50;99.90;;;;;;4786019;30;20055;-66
2022/04/22 07:31:04;;;;;;;9.85;4.40;;;10.60;99.90;;;;;;4770470;30;20063;-67
2022/04/22 07:33:32;;;;;;;10.90;4.88;;;10.60;99.90;;;;;;4783462;29;20061;-67
2022/04/22 07:35:59;;;;;;;4.80;4.05;;;10.70;99.90;;;;;;4790231;30;20489;-66
2022/04/22 07:38:25;;;;;;;7.38;4.47;;;10.70;99.90;;;;;;4789468;29;20512;-67
2022/04/22 07:40:52;;;;;;;4.68;3.60;;;10.90;99.90;;;;;;4776587;30;20059;-67
2022/04/22 07:48:58;;;;;;;6.22;4.03;;;11.10;99.90;;;;;;4790874;30;20082;-66
2022/04/22 07:51:27;;;;;;;5.40;3.92;;;11.10;99.90;;;;;;4789851;29;20548;-68
2022/04/22 07:53:56;;;;;;;5.90;3.60;;;11.20;99.90;;;;;;4772948;30;20392;-65
2022/04/22 07:56:23;;;;;;;6.90;3.58;;;11.30;99.90;;;;;;4789727;30;20355;-65
2022/04/22 07:58:48;;;;;;;6.88;3.75;;;11.40;99.90;;;;;;4775879;30;20063;-64
2022/04/22 08:01:14;;;;;;;5.97;3.30;;;11.50;99.90;;;;;;4789659;29;20063;-68
2022/04/22 08:03:40;;;;;;;9.68;3.70;;;11.50;99.90;;;;;;4773044;30;20059;-67
2022/04/22 08:06:10;;;;;;;5.90;3.00;;;11.50;99.90;;;;;;4787315;29;20055;-65
2022/04/22 08:08:36;;;;;;;5.88;3.13;;;11.50;99.90;;;;;;4789794;29;20138;-67
2022/04/22 08:11:02;;;;;;;3.72;3.17;;;11.60;99.90;;;;;;4772369;30;20067;-67
2022/04/22 08:13:27;;;;;;;5.28;3.40;;;11.70;99.90;;;;;;4789194;30;20051;-67
2022/04/22 08:15:53;;;;;;;5.50;3.38;;;11.70;99.90;;;;;;4788033;30;20066;-66
2022/04/22 08:18:19;;;;;;;3.95;2.97;;;11.80;99.90;;;;;;4772536;30;20499;-67
2022/04/22 08:20:45;;;;;;;4.07;3.00;;;11.90;99.90;;;;;;4788814;30;20142;-68
2022/04/22 08:23:11;;;;;;;3.97;2.80;;;12.00;99.90;;;;;;4773681;30;20063;-68
2022/04/22 08:25:37;;;;;;;3.95;2.65;;;12.20;99.90;;;;;;4771278;30;20469;-68
2022/04/22 08:28:03;;;;;;;3.80;3.00;;;12.50;99.90;;;;;;4787206;29;20047;-69
2022/04/22 08:30:29;;;;;;;5.03;2.80;;;12.40;99.90;;;;;;4788188;29;20494;-67
2022/04/22 08:32:55;;;;;;;6.80;2.90;;;12.50;99.90;;;;;;4789273;30;20075;-67
2022/04/22 08:35:21;;;;;;;4.15;2.55;;;12.50;99.90;;;;;;4788341;30;20160;-66
2022/04/22 08:37:46;;;;;;;4.35;2.70;;;12.60;99.90;;;;;;4786691;29;20482;-66
2022/04/22 08:40:13;;;;;;;6.55;2.42;;;12.70;99.90;;;;;;4773137;30;20062;-66
2022/04/22 08:42:40;;;;;;;4.28;2.38;;;12.80;99.90;;;;;;4787543;29;20404;-67
2022/04/22 08:45:07;;;;;;;3.45;2.50;;;12.90;99.90;;;;;;4789025;29;20070;-65
2022/04/22 08:50:17;;;;;;;5.10;2.85;;;13.00;99.90;;;;;;4786844;30;20121;-67
2022/04/22 08:52:56;;;;;;;3.28;2.70;;;13.20;99.90;;;;;;4789189;30;20094;-66
2022/04/22 08:55:23;;;;;;;3.33;2.72;;;13.30;99.90;;;;;;4773081;30;20055;-66
2022/04/22 08:57:49;;;;;;;5.32;2.95;;;13.40;99.90;;;;;;4786807;29;20331;-67
2022/04/22 09:00:16;;;;;;;6.18;2.70;;;13.50;99.90;;;;;;4793504;29;20070;-67
2022/04/22 09:02:42;;;;;;;4.82;2.90;;;13.50;99.90;;;;;;4788479;29;20074;-68
2022/04/22 09:05:09;;;;;;;3.83;2.50;;;13.60;99.90;;;;;;4788934;30;20408;-67
2022/04/22 09:07:36;;;;;;;3.40;2.38;;;13.60;99.90;;;;;;4787385;29;20059;-68
2022/04/22 09:10:02;;;;;;;4.05;2.70;;;13.70;99.90;;;;;;4787240;30;20067;-67
2022/04/22 09:12:27;;;;;;;3.85;2.80;;;13.80;99.90;;;;;;4788323;30;20054;-67
2022/04/22 09:14:55;;;;;;;3.97;2.72;;;14.00;99.90;;;;;;4786650;29;20083;-66
2022/04/22 09:17:24;;;;;;;6.38;2.55;;;14.10;99.90;;;;;;4787762;29;20062;-68
2022/04/22 09:19:53;;;;;;;4.82;2.53;;;14.20;94.50;;;;;;4789673;29;20082;-67
2022/04/22 09:22:21;;;;;;;4.88;2.75;;;14.20;97.20;;;;;;4788906;29;20143;-67
2022/04/22 09:24:48;;;;;;;3.42;2.42;;;14.50;96.20;;;;;;4773206;30;20047;-67
2022/04/22 09:27:13;;;;;;;4.50;2.50;;;14.40;93.30;;;;;;4771522;30;20079;-66
2022/04/22 09:29:43;;;;;;;5.45;2.40;;;14.50;92.00;;;;;;4771913;30;20086;-68
2022/04/22 09:32:20;;;;;;;5.80;2.63;;;14.70;86.20;;;;;;4770793;30;20104;-67
2022/04/22 09:34:45;;;;;;;3.47;2.55;;;14.80;84.80;;;;;;4787327;29;20055;-67
2022/04/22 09:42:51;;;;;;;3.03;2.45;;;15.30;81.00;;;;;;4769857;30;20055;-68
2022/04/22 09:45:17;;;;;;;8.40;2.47;;;15.40;75.50;;;;;;4788169;30;20059;-67
2022/04/22 09:47:43;;;;;;;3.63;2.40;;;15.40;72.50;;;;;;4772004;30;20063;-67
2022/04/22 09:50:11;;;;;;;4.35;2.67;;;15.30;71.70;;;;;;4771724;30;20055;-68
2022/04/22 09:52:43;;;;;;;3.78;2.53;;;15.30;70.20;;;;;;4786997;29;20142;-68
2022/04/22 09:55:10;;;;;;;5.80;2.47;;;15.20;68.60;;;;;;4787312;29;20051;-67
2022/04/22 09:58:11;;;;;;;4.60;2.47;;;15.20;68.10;;;;;;4784611;29;20062;-67
2022/04/22 10:00:37;;;;;;;3.35;2.40;;;15.20;67.40;;;;;;4786398;29;20047;-68
2022/04/22 10:03:04;;;;;;;5.97;2.70;;;15.20;68.30;;;;;;4786423;30;20404;-67
2022/04/22 10:05:33;;;;;;;6.32;2.65;;;15.30;67.70;;;;;;4769134;30;20504;-67
2022/04/22 10:08:02;;;;;;;7.28;2.50;;;15.40;67.40;;;;;;4786963;29;20058;-67
2022/04/22 10:10:39;;;;;;;3.83;2.92;;;15.40;66.60;;;;;;4767032;30;20055;-68
2022/04/22 10:13:06;;;;;;;4.68;2.28;;;15.30;63.80;;;;;;4768553;30;20156;-67
2022/04/22 10:15:37;;;;;;;9.10;2.85;;;15.40;66.40;;;;;;4767638;30;20410;-68
2022/04/22 10:18:04;;;;;;;5.80;2.70;;;15.40;65.30;;;;;;4769685;30;20070;-68
2022/04/22 10:20:32;;;;;;;4.68;2.50;;;15.60;66.70;;;;;;4768022;30;20051;-68
2022/04/22 10:22:58;;;;;;;4.20;2.47;;;15.70;66.10;;;;;;4768651;30;20051;-68
2022/04/22 10:25:28;;;;;;;6.03;3.05;;;15.70;65.40;;;;;;4770210;30;20497;-68
2022/04/22 10:27:57;;;;;;;4.07;2.80;;;15.70;65.50;;;;;;4768648;30;20109;-68
2022/04/22 10:30:24;;;;;;;4.78;2.90;;;15.80;65.40;;;;;;4766133;30;20055;-68
2022/04/22 10:32:50;;;;;;;3.50;2.97;;;15.90;65.90;;;;;;4770102;30;20062;-68
2022/04/22 10:35:16;;;;;;;4.10;2.95;;;16.00;65.90;;;;;;4783335;30;20059;-68
2022/04/22 10:37:42;;;;;;;3.83;3.40;;;16.00;65.80;;;;;;4768609;30;20047;-68
2022/04/22 10:40:23;;;;;;;4.38;3.28;;;16.30;66.50;;;;;;4769102;30;20052;-68
2022/04/22 10:42:50;;;;;;;4.45;3.22;;;16.10;64.50;;;;;;4770511;30;20067;-68
2022/04/22 10:48:21;;;;;;;4.97;3.35;;;16.10;66.20;;;;;;4768703;30;20067;-67
2022/04/22 10:50:58;;;;;;;4.70;3.60;;;16.00;66.90;;;;;;4767287;30;20474;-68
2022/04/22 10:53:35;;;;;;;5.85;3.45;;;16.10;67.30;;;;;;4782252;30;20058;-68
2022/04/22 10:56:25;;;;;;;4.28;3.45;;;16.10;68.00;;;;;;4767080;30;20104;-68
2022/04/22 10:59:15;;;;;;;4.05;3.17;;;16.20;67.50;;;;;;4766541;30;20083;-68
2022/04/22 11:01:43;;;;;;;6.20;3.60;;;16.20;65.50;;;;;;4768764;30;20217;-67
2022/04/22 11:04:19;;;;;;;5.32;3.25;;;16.20;67.10;;;;;;4767443;30;20402;-69
2022/04/22 11:06:45;;;;;;;7.55;3.55;;;16.30;66.70;;;;;;4767910;30;20059;-67
2022/04/22 11:09:22;;;;;;;5.43;3.45;;;16.30;66.70;;;;;;4768134;30;20090;-67
2022/04/22 11:11:48;;;;;;;5.35;3.67;;;16.30;66.50;;;;;;4784745;30;20059;-68
2022/04/22 11:14:25;;;;;;;6.47;3.50;;;16.40;67.00;;;;;;4772092;30;20070;-67
2022/04/22 11:16:52;;;;;;;5.28;3.25;;;16.50;66.80;;;;;;4770609;30;20105;-68
2022/04/22 11:19:18;;;;;;;5.50;3.42;;;16.40;65.20;;;;;;4785535;29;20093;-68
2022/04/22 11:21:53;;;;;;;4.57;3.40;;;16.70;65.10;;;;;;4769192;30;20385;-68
2022/04/22 11:24:23;;;;;;;5.75;3.63;;;16.90;64.50;;;;;;4768763;30;20548;-67
2022/04/22 11:26:48;;;;;;;5.07;3.10;;;17.00;63.80;;;;;;4786680;30;20386;-68
2022/04/22 11:29:15;;;;;;;5.22;3.60;;;16.90;63.30;;;;;;4771244;30;20068;-68
2022/04/22 11:32:01;;;;;;;4.00;3.42;;;17.00;63.00;;;;;;4770213;30;20138;-68
2022/04/22 11:35:03;;;;;;;4.18;3.13;;;16.90;62.50;;;;;;4770546;30;20048;-67
2022/04/22 11:37:29;;;;;;;4.55;3.58;;;16.90;62.30;;;;;;4769976;30;20059;-69
2022/04/22 11:39:54;;;;;;;7.20;3.83;;;16.90;62.40;;;;;;4770244;30;20056;-67
2022/04/22 11:42:20;;;;;;;6.28;3.72;;;16.90;62.20;;;;;;4769582;30;20444;-66
2022/04/22 11:45:01;;;;;;;5.70;4.13;;;16.90;62.10;;;;;;4772023;30;20054;-68
2022/04/22 11:47:28;;;;;;;4.60;3.25;;;16.90;60.10;;;;;;4770352;30;20044;-68
2022/04/22 11:49:54;;;;;;;5.82;3.72;;;17.00;61.80;;;;;;4772472;30;20517;-68
2022/04/22 11:52:20;;;;;;;5.88;3.50;;;17.10;61.70;;;;;;4771364;30;20052;-68
2022/04/22 11:54:46;;;;;;;4.25;3.35;;;17.10;61.10;;;;;;4770814;30;20522;-68
2022/04/22 11:57:12;;;;;;;5.10;3.30;;;17.10;61.20;;;;;;4771500;30;20051;-68
2022/04/22 11:59:38;;;;;;;6.22;4.25;;;17.10;61.40;;;;;;4768989;30;20055;-68
2022/04/22 12:10:27;;;;;;;4.60;3.70;;;17.50;60.10;;;;;;4776848;29;20064;-67
2022/04/22 12:12:56;;;;;;;7.90;3.92;;;17.40;59.50;;;;;;4772348;30;20066;-67
2022/04/22 12:15:22;;;;;;;3.95;3.53;;;17.40;59.40;;;;;;4785779;29;20056;-68
2022/04/22 12:17:48;;;;;;;5.10;3.70;;;17.60;59.60;;;;;;4784791;29;20108;-66
2022/04/22 12:20:14;;;;;;;3.85;3.47;;;17.70;59.10;;;;;;4767854;30;20052;-67
2022/04/22 12:22:40;;;;;;;6.72;4.00;;;17.60;59.10;;;;;;4770601;30;20056;-67
2022/04/22 12:25:14;;;;;;;8.07;4.40;;;17.60;59.80;;;;;;4771149;30;20383;-67
2022/04/22 12:27:41;;;;;;;5.57;4.00;;;17.70;59.90;;;;;;4770406;30;20510;-64
2022/04/22 12:30:11;;;;;;;5.53;3.92;;;17.80;59.90;;;;;;4772404;30;20080;-67
2022/04/22 12:32:38;;;;;;;4.82;4.32;;;18.10;59.70;;;;;;4769849;30;20059;-67
2022/04/22 12:35:14;;;;;;;5.18;4.18;;;18.20;58.70;;;;;;4772257;30;20406;-67
2022/04/22 12:37:43;;;;;;;7.40;4.07;;;18.20;58.20;;;;;;4770424;30;20501;-68
2022/04/22 12:40:11;;;;;;;6.35;4.00;;;18.30;58.20;;;;;;4772037;30;20068;-67
2022/04/22 12:42:37;;;;;;;6.70;4.47;;;18.50;58.00;;;;;;4768554;30;20105;-67
2022/04/22 12:54:04;;;;;;;7.25;5.20;;;18.40;57.10;;;;;;4785051;30;20063;-68
2022/04/22 12:56:29;;;;;;;7.32;5.00;;;18.20;58.50;;;;;;4785418;30;20060;-67
2022/04/22 12:58:58;;;;;;;8.52;5.70;;;18.30;58.60;;;;;;4785070;30;20082;-67
2022/04/22 13:01:29;;;;;;;9.00;6.10;;;18.20;58.30;;;;;;4783633;30;20091;-68
2022/04/22 13:03:55;;;;;;;8.95;6.10;;;18.10;58.20;;;;;;4752336;30;20060;-68
2022/04/22 13:06:45;;;;;;;8.38;5.88;;;18.10;58.60;;;;;;4753522;30;20048;-67
2022/04/22 13:09:13;;;;;;;8.68;6.05;;;18.40;58.80;;;;;;4759295;30;20121;-68
2022/04/22 13:11:39;;;;;;;10.70;6.30;;;18.70;58.30;;;;;;4771278;30;20066;-67
2022/04/22 13:14:06;;;;;;;6.68;5.70;;;19.00;57.80;;;;;;4770138;30;20088;-67
2022/04/22 13:16:32;;;;;;;7.13;5.80;;;19.10;57.10;;;;;;4770825;30;20075;-67
2022/04/22 13:18:58;;;;;;;6.05;5.45;;;19.10;57.20;;;;;;4784068;29;20142;-67
2022/04/22 13:21:24;;;;;;;7.07;5.88;;;18.90;57.30;;;;;;4770175;30;20079;-68
2022/04/22 13:23:53;;;;;;;6.97;5.10;;;18.60;57.40;;;;;;4769739;30;20386;-68
2022/04/22 13:26:19;;;;;;;7.57;6.07;;;18.50;58.00;;;;;;4771188;30;20064;-67
2022/04/22 13:28:45;;;;;;;8.80;5.50;;;18.30;58.20;;;;;;4769615;30;20056;-67
2022/04/22 13:31:10;;;;;;;6.93;5.20;;;18.30;58.40;;;;;;4769273;30;20068;-67
2022/04/22 13:33:36;;;;;;;7.00;6.22;;;18.40;58.90;;;;;;4784410;30;20056;-67
2022/04/22 13:36:04;;;;;;;11.45;6.10;;;18.50;58.40;;;;;;4770950;30;20067;-67
2022/04/22 13:38:31;;;;;;;11.85;6.32;;;18.40;58.60;;;;;;4784620;30;20087;-68
2022/04/22 13:40:57;;;;;;;8.63;6.40;;;18.30;58.60;;;;;;4784829;30;20178;-68
2022/04/22 13:43:22;;;;;;;9.68;6.20;;;18.20;58.60;;;;;;4771049;30;20513;-67
2022/04/22 13:54:02;;;;;;;8.38;6.32;;;18.30;58.70;;;;;;4770144;30;20142;-66
2022/04/22 13:56:27;;;;;;;9.52;6.15;;;18.40;59.00;;;;;;4784079;29;20545;-66
2022/04/22 13:58:53;;;;;;;9.13;6.50;;;18.30;59.30;;;;;;4784303;30;20105;-66
2022/04/22 14:01:18;;;;;;;8.45;6.25;;;18.20;59.50;;;;;;4770124;30;20047;-66
2022/04/22 14:03:44;;;;;;;8.38;6.32;;;18.00;59.50;;;;;;4784138;30;20071;-66
2022/04/22 14:06:09;;;;;;;12.38;6.05;;;17.90;60.10;;;;;;4783938;30;20055;-66
2022/04/22 14:08:35;;;;;;;7.55;5.90;;;18.10;60.10;;;;;;4783974;29;20066;-66
2022/04/22 14:11:01;;;;;;;10.02;5.90;;;18.20;59.90;;;;;;4783347;29;20060;-65
2022/04/22 14:13:27;;;;;;;9.13;6.60;;;18.40;59.50;;;;;;4784374;30;20513;-66